Time;durP1;ratioP1;P1;durP2;ratioP2;P2;SDS_P1;SDS_P2;PMS_P1;PMS_P2;Temp;Humidity;BMP_temperature;BMP_pressure;BME280_temperature;BME280_humidity;BME280_pressure;Samples;Min_cycle;Max_cycle;Signal;HPM_P1;HPM_P2
2022/07/17 00:00:24;;;;;;;;;4.50;3.75;;;;;21.63;39.99;101563.69;5015454;28;45590;-70
2022/07/17 00:02:50;;;;;;;;;5.50;4.00;;;;;21.57;40.21;101564.09;5015566;28;45485;-68
2022/07/17 00:05:17;;;;;;;;;7.50;6.00;;;;;21.54;40.36;101572.34;5013845;28;45410;-65
2022/07/17 00:07:42;;;;;;;;;6.00;4.75;;;;;21.49;40.21;101564.63;5015757;28;45515;-64
2022/07/17 00:10:08;;;;;;;;;6.00;6.00;;;;;21.39;40.77;101551.06;5015857;28;45588;-64
2022/07/17 00:12:34;;;;;;;;;5.50;5.00;;;;;21.38;40.58;101564.53;5015338;28;46585;-63
2022/07/17 00:14:59;;;;;;;;;6.00;4.25;;;;;21.31;40.58;101562.28;5015111;28;45383;-64
2022/07/17 00:17:25;;;;;;;;;3.50;3.50;;;;;21.26;40.72;101558.25;5013716;28;45237;-65
2022/07/17 00:19:50;;;;;;;;;4.75;4.75;;;;;21.20;41.07;101556.84;5015664;28;45552;-63
2022/07/17 00:22:15;;;;;;;;;7.25;5.00;;;;;21.19;41.25;101559.59;5015023;28;46273;-64
2022/07/17 00:24:41;;;;;;;;;5.00;5.00;;;;;21.16;40.71;101553.50;5015130;28;45351;-64
2022/07/17 00:27:06;;;;;;;;;7.50;6.25;;;;;21.16;41.24;101555.34;5013849;28;45819;-66
2022/07/17 00:29:32;;;;;;;;;4.25;4.25;;;;;21.09;40.71;101549.56;5015001;28;45315;-64
2022/07/17 00:31:57;;;;;;;;;2.25;2.25;;;;;21.07;41.38;101554.16;5014808;28;46323;-70
2022/07/17 00:34:22;;;;;;;;;4.00;4.00;;;;;21.05;41.08;101556.06;5015029;28;45237;-68
2022/07/17 00:36:48;;;;;;;;;2.25;2.25;;;;;21.01;41.18;101563.47;5015398;28;45271;-64
2022/07/17 00:39:13;;;;;;;;;4.50;4.50;;;;;21.01;41.19;101559.94;5015510;28;45591;-68
2022/07/17 00:41:39;;;;;;;;;5.00;5.00;;;;;21.01;41.02;101560.78;5014810;28;46086;-68
2022/07/17 00:44:05;;;;;;;;;8.00;5.75;;;;;20.97;41.58;101553.06;5014668;28;45462;-68
2022/07/17 00:46:30;;;;;;;;;10.25;7.75;;;;;20.97;41.24;101551.28;5013808;28;45463;-67
2022/07/17 00:48:56;;;;;;;;;7.00;7.00;;;;;20.78;42.01;101522.25;5015019;28;45591;-67
2022/07/17 00:51:21;;;;;;;;;5.25;5.25;;;;;20.87;41.70;101553.72;5014697;28;47039;-68
2022/07/17 00:53:49;;;;;;;;;6.25;5.00;;;;;20.87;41.63;101556.38;5014715;28;45433;-66
2022/07/17 00:56:16;;;;;;;;;6.50;6.00;;;;;20.83;41.88;101554.88;5015087;28;45303;-67
2022/07/17 00:58:42;;;;;;;;;3.25;3.25;;;;;20.78;42.30;101565.03;5014614;28;45224;-67
2022/07/17 01:01:08;;;;;;;;;4.75;4.50;;;;;20.76;42.38;101563.41;5014506;28;45281;-67
2022/07/17 01:03:33;;;;;;;;;9.75;6.75;;;;;20.70;42.50;101562.00;5014323;28;45340;-67
2022/07/17 01:05:58;;;;;;;;;4.75;4.75;;;;;20.66;42.45;101563.16;5014553;28;45341;-66
2022/07/17 01:08:24;;;;;;;;;5.00;5.00;;;;;20.61;42.30;101566.13;5014628;28;45329;-67
2022/07/17 01:10:49;;;;;;;;;5.00;3.75;;;;;20.59;42.68;101557.38;5012930;28;46922;-66
2022/07/17 01:13:15;;;;;;;;;4.00;4.00;;;;;20.52;42.84;101564.97;5014530;28;45389;-68
2022/07/17 01:15:41;;;;;;;;;6.00;4.75;;;;;20.51;42.42;101560.56;5013003;28;45344;-67
2022/07/17 01:18:10;;;;;;;;;3.75;3.75;;;;;20.47;43.05;101560.88;5014548;28;45854;-67
2022/07/17 01:20:37;;;;;;;;;4.00;4.00;;;;;20.45;42.81;101563.66;5014101;28;45376;-67
2022/07/17 01:23:02;;;;;;;;;6.75;5.50;;;;;20.41;43.12;101557.63;5014069;28;45180;-68
2022/07/17 01:25:28;;;;;;;;;6.00;4.75;;;;;20.35;43.02;101554.53;5014051;28;45338;-66
2022/07/17 01:27:53;;;;;;;;;4.25;3.25;;;;;20.32;43.27;101549.41;5014598;28;45356;-68
2022/07/17 01:30:19;;;;;;;;;4.50;4.50;;;;;20.30;43.44;101554.81;5012724;28;46253;-67
2022/07/17 01:32:45;;;;;;;;;5.00;3.25;;;;;20.24;43.31;101550.75;5014579;28;45449;-69
2022/07/17 01:35:13;;;;;;;;;8.00;8.00;;;;;20.23;43.77;101562.41;5014015;28;45350;-67
2022/07/17 01:37:40;;;;;;;;;7.00;4.75;;;;;20.22;43.61;101557.16;5014410;28;45541;-68
2022/07/17 01:40:07;;;;;;;;;4.25;4.25;;;;;20.21;43.42;101550.97;5012512;28;45422;-68
2022/07/17 01:42:32;;;;;;;;;3.25;3.25;;;;;20.18;43.45;101542.28;5017265;28;45449;-68
2022/07/17 01:44:58;;;;;;;;;5.00;3.25;;;;;20.16;43.76;101553.09;5017877;28;45250;-69
2022/07/17 01:47:24;;;;;;;;;3.75;3.75;;;;;20.11;43.85;101545.34;5017810;28;45431;-67
2022/07/17 01:49:53;;;;;;;;;2.00;2.00;;;;;20.09;43.55;101551.75;5017399;28;46166;-67
2022/07/17 01:52:19;;;;;;;;;5.00;5.00;;;;;20.06;43.73;101550.13;5017304;28;45470;-67
2022/07/17 01:54:45;;;;;;;;;5.75;5.75;;;;;20.01;44.22;101538.91;5017355;28;45280;-66
2022/07/17 01:57:11;;;;;;;;;4.75;4.75;;;;;19.98;44.08;101536.44;5017325;28;45563;-66
2022/07/17 01:59:38;;;;;;;;;4.75;4.75;;;;;19.97;44.18;101540.91;5016882;28;45457;-64
2022/07/17 02:02:04;;;;;;;;;5.00;5.00;;;;;19.94;44.21;101540.25;5015562;28;45386;-64
2022/07/17 02:04:30;;;;;;;;;5.00;4.00;;;;;19.93;43.88;101538.53;5017426;28;45422;-64
2022/07/17 02:06:55;;;;;;;;;4.75;4.75;;;;;19.90;43.84;101534.25;5017378;28;45593;-63
2022/07/17 02:09:21;;;;;;;;;4.75;3.25;;;;;19.88;44.21;101541.47;5017090;28;46304;-67
2022/07/17 02:11:47;;;;;;;;;3.50;3.50;;;;;19.88;44.38;101536.13;5017279;28;45430;-63
2022/07/17 02:14:12;;;;;;;;;3.50;2.25;;;;;19.85;44.21;101536.31;5017370;28;45332;-65
2022/07/17 02:16:38;;;;;;;;;3.50;3.50;;;;;19.85;44.27;101533.66;5016991;28;45422;-65
2022/07/17 02:19:03;;;;;;;;;1.50;1.50;;;;;19.84;44.62;101532.81;5016945;28;46598;-65
2022/07/17 02:21:29;;;;;;;;;1.00;1.00;;;;;19.81;44.49;101534.81;5016992;28;45368;-66
2022/07/17 02:23:54;;;;;;;;;5.00;5.00;;;;;19.74;44.82;101529.03;5017203;28;45446;-65
2022/07/17 02:26:19;;;;;;;;;3.50;3.50;;;;;19.67;45.13;101525.88;5017568;28;45482;-66
2022/07/17 02:28:45;;;;;;;;;6.50;5.00;;;;;19.72;44.70;101533.59;5017043;28;45358;-65
2022/07/17 02:31:10;;;;;;;;;5.00;5.00;;;;;19.70;44.29;101532.84;5017093;28;45314;-66
2022/07/17 02:33:35;;;;;;;;;3.00;3.00;;;;;19.70;44.83;101530.19;5017063;28;45778;-66
2022/07/17 02:36:01;;;;;;;;;4.00;4.00;;;;;19.67;44.93;101538.38;5017193;28;45607;-68
2022/07/17 02:38:27;;;;;;;;;5.25;4.00;;;;;19.65;44.95;101532.28;5017098;28;45446;-66
2022/07/17 02:40:52;;;;;;;;;5.75;4.25;;;;;19.61;44.98;101533.41;5016651;28;45380;-65
2022/07/17 02:43:17;;;;;;;;;4.75;4.75;;;;;19.48;44.68;101502.16;5017231;28;45240;-68
2022/07/17 02:45:43;;;;;;;;;6.50;5.00;;;;;19.45;45.19;101517.53;5016865;28;45690;-67
2022/07/17 02:48:08;;;;;;;;;3.75;3.75;;;;;19.56;45.19;101539.06;5016494;28;46508;-70
2022/07/17 02:50:34;;;;;;;;;5.75;4.75;;;;;19.53;45.25;101528.56;5016549;28;45418;-68
2022/07/17 02:52:59;;;;;;;;;5.25;5.25;;;;;19.46;45.21;101521.91;5016048;28;45437;-67
2022/07/17 02:55:24;;;;;;;;;7.00;5.00;;;;;19.47;45.45;101526.28;5016756;28;45464;-68
2022/07/17 02:57:50;;;;;;;;;3.50;3.50;;;;;19.45;45.40;101529.03;5016747;28;46632;-68
2022/07/17 03:00:17;;;;;;;;;3.75;3.75;;;;;19.41;45.41;101528.38;5016227;28;45400;-68
2022/07/17 03:02:44;;;;;;;;;5.25;4.00;;;;;19.40;45.41;101521.34;5016552;28;45398;-68
2022/07/17 03:05:10;;;;;;;;;4.50;4.50;;;;;19.40;45.67;101526.69;5016578;28;45319;-66
2022/07/17 03:07:35;;;;;;;;;4.50;4.50;;;;;19.38;45.25;101519.72;5016174;28;45567;-66
2022/07/17 03:10:02;;;;;;;;;4.75;4.75;;;;;19.35;45.79;101517.22;5016319;28;45244;-67
2022/07/17 03:12:27;;;;;;;;;0.00;0.00;;;;;19.33;45.55;101522.69;5016564;28;45303;-68
2022/07/17 03:14:53;;;;;;;;;4.00;2.50;;;;;19.29;45.50;101521.16;5016535;28;45783;-64
2022/07/17 03:17:18;;;;;;;;;5.00;5.00;;;;;19.25;45.86;101514.31;5016076;28;45744;-66
2022/07/17 03:19:43;;;;;;;;;4.50;4.50;;;;;19.24;45.96;101523.25;5016068;28;45316;-65
2022/07/17 03:22:09;;;;;;;;;7.75;4.75;;;;;19.18;46.04;101518.31;5016044;28;45352;-69
2022/07/17 03:24:34;;;;;;;;;5.75;4.50;;;;;19.16;46.65;101522.88;5016059;28;45228;-68
2022/07/17 03:26:59;;;;;;;;;4.25;4.25;;;;;19.11;46.33;101523.16;5015801;28;45471;-70
2022/07/17 03:29:25;;;;;;;;;4.00;4.00;;;;;19.10;46.06;101530.31;5015908;28;45372;-68
2022/07/17 03:31:50;;;;;;;;;5.25;5.25;;;;;19.05;46.23;101527.03;5016322;28;45912;-67
2022/07/17 03:34:16;;;;;;;;;5.00;5.00;;;;;19.04;46.91;101533.31;5016215;28;45498;-66
2022/07/17 03:36:42;;;;;;;;;4.75;3.75;;;;;19.01;46.52;101538.81;5015587;28;46181;-67
2022/07/17 03:39:07;;;;;;;;;5.00;5.00;;;;;19.00;46.35;101542.44;5015564;28;45464;-65
2022/07/17 03:41:33;;;;;;;;;5.00;5.00;;;;;19.00;46.50;101542.44;5015866;28;45341;-67
2022/07/17 03:43:58;;;;;;;;;4.75;4.75;;;;;18.95;46.64;101540.03;5016207;28;45343;-66
2022/07/17 03:46:24;;;;;;;;;3.75;3.75;;;;;18.99;46.20;101551.41;5031086;28;46498;-67
2022/07/17 03:48:49;;;;;;;;;6.00;3.50;;;;;18.93;46.58;101552.59;5015605;28;45385;-66
2022/07/17 03:51:15;;;;;;;;;4.50;4.00;;;;;18.93;46.41;101543.75;5015657;28;45285;-65
2022/07/17 03:53:40;;;;;;;;;4.00;4.00;;;;;18.89;46.77;101548.41;5015721;28;45462;-67
2022/07/17 03:56:06;;;;;;;;;4.00;4.00;;;;;18.86;46.90;101547.72;5015279;28;46295;-65
2022/07/17 03:58:32;;;;;;;;;5.00;5.00;;;;;18.80;46.69;101549.81;5015270;28;45220;-66
2022/07/17 04:00:58;;;;;;;;;6.00;4.75;;;;;18.79;46.92;101553.44;5015460;28;45225;-65
2022/07/17 04:03:23;;;;;;;;;4.75;4.75;;;;;18.78;47.12;101556.19;5015161;28;45465;-68
2022/07/17 04:05:49;;;;;;;;;4.50;4.50;;;;;18.72;47.09;101553.91;5013828;28;47642;-68
2022/07/17 04:08:15;;;;;;;;;5.50;5.50;;;;;18.76;46.75;101547.44;5015188;28;45372;-67
2022/07/17 04:10:41;;;;;;;;;5.25;5.25;;;;;18.75;47.08;101554.56;5015520;28;45380;-69
2022/07/17 04:13:06;;;;;;;;;5.75;5.00;;;;;18.76;47.09;101539.44;5015565;28;45419;-67
2022/07/17 04:15:49;;;;;;;;;2.75;1.00;;;;;18.76;47.36;101534.09;5015218;28;46526;-68
2022/07/17 04:18:16;;;;;;;;;3.50;3.50;;;;;18.76;47.14;101537.63;5015153;28;45455;-67
2022/07/17 04:20:42;;;;;;;;;5.75;5.75;;;;;18.75;47.09;101532.41;5015107;28;45360;-67
2022/07/17 04:23:08;;;;;;;;;7.50;5.75;;;;;18.75;47.33;101541.22;5015291;28;45327;-69
2022/07/17 04:25:33;;;;;;;;;5.00;5.00;;;;;18.74;47.30;101539.50;5014804;28;45419;-68
2022/07/17 04:27:58;;;;;;;;;4.25;4.25;;;;;18.70;47.47;101537.97;5015028;28;45347;-68
2022/07/17 04:30:24;;;;;;;;;5.25;5.25;;;;;18.80;47.13;101557.81;5015276;28;45257;-68
2022/07/17 04:32:49;;;;;;;;;4.50;4.50;;;;;18.83;46.98;101573.63;5015300;28;45372;-65
2022/07/17 04:35:15;;;;;;;;;7.00;6.25;;;;;18.84;47.32;101575.34;5014872;28;45483;-68
2022/07/17 04:37:40;;;;;;;;;6.00;6.00;;;;;18.88;46.64;101586.69;5014755;28;45248;-67
2022/07/17 04:40:06;;;;;;;;;9.00;8.50;;;;;18.88;47.04;101577.81;5014815;28;45303;-67
2022/07/17 04:42:31;;;;;;;;;10.00;10.00;;;;;18.85;47.35;101573.53;5015242;28;45534;-67
2022/07/17 04:44:57;;;;;;;;;14.00;14.00;;;;;18.86;47.12;101577.91;5014971;28;45257;-64
2022/07/17 04:47:22;;;;;;;;;17.50;17.50;;;;;18.78;47.30;101581.03;5015239;28;45302;-68
2022/07/17 04:49:47;;;;;;;;;18.00;16.00;;;;;18.79;47.42;101590.75;5015099;28;45211;-68
2022/07/17 04:52:13;;;;;;;;;17.00;15.50;;;;;18.75;47.25;101583.03;5014877;28;45210;-68
2022/07/17 04:54:38;;;;;;;;;18.50;18.50;;;;;18.79;47.09;101601.41;5014534;28;45236;-67
2022/07/17 04:57:04;;;;;;;;;18.50;16.75;;;;;18.83;47.11;101602.09;5014629;28;45359;-67
2022/07/17 04:59:29;;;;;;;;;20.00;16.00;;;;;18.83;47.09;101608.25;5014644;28;45433;-67
2022/07/17 05:01:54;;;;;;;;;13.25;13.25;;;;;18.81;46.85;101588.84;5015322;28;45184;-66
2022/07/17 05:04:20;;;;;;;;;11.00;8.75;;;;;18.91;46.66;101606.94;5014681;28;46417;-70
2022/07/17 05:06:46;;;;;;;;;9.00;9.00;;;;;18.95;46.79;101597.81;5014417;28;45544;-66
2022/07/17 05:09:11;;;;;;;;;7.75;7.75;;;;;19.00;46.80;101598.44;5014594;28;45293;-67
2022/07/17 05:11:37;;;;;;;;;8.25;8.25;;;;;19.15;46.75;101598.50;5014966;28;45252;-67
2022/07/17 05:14:02;;;;;;;;;6.75;6.75;;;;;19.33;46.28;101589.38;5014420;28;46227;-67
2022/07/17 05:16:27;;;;;;;;;7.75;7.75;;;;;19.71;46.07;101604.81;5017736;28;46029;-67
2022/07/17 05:18:53;;;;;;;;;7.75;6.00;;;;;19.96;45.50;101586.41;5018227;28;45362;-68
2022/07/17 05:21:18;;;;;;;;;5.50;5.50;;;;;20.27;45.03;101589.75;5018357;28;45514;-67
2022/07/17 05:23:44;;;;;;;;;5.00;5.00;;;;;20.53;44.19;101601.41;5018025;28;45612;-68
2022/07/17 05:26:10;;;;;;;;;5.00;5.00;;;;;20.70;43.42;101599.44;5018123;28;45778;-64
2022/07/17 05:28:36;;;;;;;;;5.75;5.75;;;;;20.88;43.46;101605.41;5018125;28;45324;-67
2022/07/17 05:31:01;;;;;;;;;5.75;4.75;;;;;20.97;43.09;101609.25;5018140;28;45309;-68
2022/07/17 05:33:26;;;;;;;;;3.00;3.00;;;;;21.07;43.10;101604.97;5018215;28;45312;-66
2022/07/17 05:35:52;;;;;;;;;3.75;3.75;;;;;21.12;42.92;101604.66;5017625;28;45319;-68
2022/07/17 05:38:17;;;;;;;;;4.00;4.00;;;;;21.13;42.67;101599.19;5016512;28;45353;-67
2022/07/17 05:40:43;;;;;;;;;4.00;4.00;;;;;21.09;42.75;101605.72;5033265;28;45359;-68
2022/07/17 05:43:08;;;;;;;;;4.00;4.00;;;;;21.04;42.86;101594.47;5017564;28;45470;-67
2022/07/17 05:45:33;;;;;;;;;5.25;4.00;;;;;21.03;42.85;101608.81;5017755;28;45380;-65
2022/07/17 05:47:59;;;;;;;;;4.75;3.00;;;;;20.98;42.88;101601.13;5018048;28;45263;-66
2022/07/17 05:50:24;;;;;;;;;3.25;3.25;;;;;20.96;43.04;101605.72;5017621;28;45215;-67
2022/07/17 05:52:50;;;;;;;;;3.75;3.75;;;;;20.87;43.42;101607.19;5017228;28;46463;-68
2022/07/17 05:55:15;;;;;;;;;3.00;3.00;;;;;20.88;43.03;101608.06;5017588;28;45367;-67
2022/07/17 05:57:40;;;;;;;;;3.50;3.50;;;;;20.83;42.95;101602.19;5017661;28;45360;-67
2022/07/17 06:00:06;;;;;;;;;3.00;3.00;;;;;20.77;43.16;101610.56;5017627;28;45524;-67
2022/07/17 06:02:32;;;;;;;;;4.75;4.75;;;;;20.68;43.38;101604.03;5015844;28;47821;-63
2022/07/17 06:04:57;;;;;;;;;4.00;4.00;;;;;20.61;43.78;101606.22;5017534;28;45311;-64
2022/07/17 06:07:22;;;;;;;;;4.25;4.25;;;;;20.51;43.40;101608.69;5017332;28;45428;-66
2022/07/17 06:09:48;;;;;;;;;3.75;3.75;;;;;20.42;43.93;101622.66;5017314;28;45321;-67
2022/07/17 06:12:13;;;;;;;;;4.25;4.00;;;;;20.36;43.99;101625.72;5017128;28;45399;-67
2022/07/17 06:14:38;;;;;;;;;3.25;3.25;;;;;20.26;44.06;101614.75;5015755;28;45341;-66
2022/07/17 06:17:03;;;;;;;;;4.50;4.50;;;;;20.22;44.28;101614.13;5017037;28;45446;-64
2022/07/17 06:19:29;;;;;;;;;4.75;3.50;;;;;20.13;44.20;101612.88;5017469;28;45586;-64
2022/07/17 06:21:54;;;;;;;;;4.00;4.00;;;;;20.16;44.96;101613.66;5016788;28;45498;-65
2022/07/17 06:24:19;;;;;;;;;3.25;3.25;;;;;20.10;44.76;101604.19;5016972;28;45354;-66
2022/07/17 06:26:45;;;;;;;;;5.25;3.25;;;;;20.14;45.13;101616.41;5016492;28;45382;-67
2022/07/17 06:29:10;;;;;;;;;4.75;4.00;;;;;20.12;44.70;101612.97;5017108;28;45271;-68
2022/07/17 06:31:36;;;;;;;;;4.50;3.00;;;;;20.18;44.32;101625.97;5016945;28;45332;-67
2022/07/17 06:34:01;;;;;;;;;6.50;4.00;;;;;20.20;44.65;101608.03;5015595;28;45322;-65
2022/07/17 06:36:26;;;;;;;;;4.25;3.00;;;;;20.27;44.51;101614.69;5016915;28;45354;-67
2022/07/17 06:38:52;;;;;;;;;4.25;4.25;;;;;20.27;44.78;101614.69;5015589;28;45169;-65
2022/07/17 06:41:17;;;;;;;;;4.00;4.00;;;;;20.24;44.57;101598.84;5016783;28;46396;-62
2022/07/17 06:43:42;;;;;;;;;2.25;2.25;;;;;20.41;43.99;101608.41;5016845;28;45235;-66
2022/07/17 06:46:08;;;;;;;;;4.25;4.00;;;;;20.54;43.48;101610.28;5016947;28;45292;-67
2022/07/17 06:48:33;;;;;;;;;6.75;2.75;;;;;20.67;43.68;101611.16;5017637;28;45702;-64
2022/07/17 06:50:59;;;;;;;;;3.00;3.00;;;;;20.76;43.21;101608.88;5017038;28;46475;-62
2022/07/17 06:53:24;;;;;;;;;5.00;5.00;;;;;20.88;43.37;101610.75;5016851;28;45344;-66
2022/07/17 06:55:49;;;;;;;;;4.25;4.25;;;;;20.92;42.75;101612.25;5016920;28;45335;-67
2022/07/17 06:58:15;;;;;;;;;4.25;4.25;;;;;20.91;42.30;101599.84;5017327;28;45486;-64
2022/07/17 07:00:40;;;;;;;;;5.00;4.75;;;;;21.01;42.24;101605.41;5015507;28;46725;-65
2022/07/17 07:03:05;;;;;;;;;8.00;5.50;;;;;21.01;42.54;101606.28;5016833;28;45448;-66
2022/07/17 07:05:31;;;;;;;;;3.00;3.00;;;;;21.07;42.38;101607.66;5015876;28;45479;-63
2022/07/17 07:07:56;;;;;;;;;4.75;3.75;;;;;21.13;42.39;101606.38;5016782;28;45646;-66
2022/07/17 07:10:22;;;;;;;;;4.00;4.00;;;;;21.30;42.05;101606.06;5016504;28;45506;-63
2022/07/17 07:12:47;;;;;;;;;4.50;3.00;;;;;21.36;41.54;101612.81;5031719;28;45485;-67
2022/07/17 07:15:14;;;;;;;;;4.00;4.00;;;;;21.44;41.43;101610.47;5016551;28;45370;-67
2022/07/17 07:17:40;;;;;;;;;2.75;2.00;;;;;21.51;41.11;101610.88;5016261;28;45328;-65
2022/07/17 07:20:06;;;;;;;;;3.00;3.00;;;;;21.45;40.91;101585.41;5015707;28;45340;-63
2022/07/17 07:22:32;;;;;;;;;3.25;3.00;;;;;21.70;40.68;101618.50;5016354;28;45238;-66
2022/07/17 07:24:57;;;;;;;;;4.00;2.75;;;;;21.78;40.89;101609.94;5016164;28;45332;-67
2022/07/17 07:27:23;;;;;;;;;3.00;3.00;;;;;21.96;40.73;101618.44;5016130;28;45529;-65
2022/07/17 07:29:49;;;;;;;;;2.25;2.25;;;;;22.10;40.36;101620.13;5015809;28;46715;-65
2022/07/17 07:32:15;;;;;;;;;3.75;3.75;;;;;22.22;40.18;101614.84;5015786;28;45256;-67
2022/07/17 07:34:40;;;;;;;;;5.00;3.25;;;;;22.35;39.20;101625.53;5015784;28;45402;-68
2022/07/17 07:37:06;;;;;;;;;5.75;5.00;;;;;22.37;39.62;101620.91;5016056;28;45871;-66
2022/07/17 07:39:31;;;;;;;;;2.00;2.00;;;;;22.49;39.57;101625.41;5014596;28;46197;-66
2022/07/17 07:41:56;;;;;;;;;5.50;3.00;;;;;22.56;39.07;101615.06;5015673;28;45462;-63
2022/07/17 07:44:22;;;;;;;;;4.00;4.00;;;;;22.69;39.31;101609.63;5014403;28;45420;-64
2022/07/17 07:46:47;;;;;;;;;4.25;4.25;;;;;22.81;38.84;101614.06;5015623;28;45337;-65
2022/07/17 07:49:12;;;;;;;;;3.00;3.00;;;;;22.94;39.36;101610.44;5015326;28;45457;-65
2022/07/17 07:51:38;;;;;;;;;2.00;0.00;;;;;23.05;38.16;101615.84;5015358;28;45362;-67
2022/07/17 07:54:03;;;;;;;;;2.00;2.00;;;;;23.12;38.42;101617.06;5015947;28;45317;-67
2022/07/17 07:56:28;;;;;;;;;4.00;3.25;;;;;23.17;38.07;101614.03;5015895;28;45593;-68
2022/07/17 07:58:54;;;;;;;;;4.25;4.25;;;;;23.29;38.48;101614.94;5015141;28;46266;-68
2022/07/17 08:01:19;;;;;;;;;3.00;3.00;;;;;23.42;38.48;101612.16;5015022;28;45399;-68
2022/07/17 08:03:45;;;;;;;;;3.00;3.00;;;;;23.60;37.71;101621.44;5015282;28;45362;-66
2022/07/17 08:06:10;;;;;;;;;6.00;4.00;;;;;23.70;37.87;101610.81;5015040;28;45678;-67
2022/07/17 08:08:35;;;;;;;;;6.00;6.00;;;;;23.86;37.31;101623.00;5015346;28;46350;-68
2022/07/17 08:11:01;;;;;;;;;3.25;3.25;;;;;23.96;37.44;101615.06;5015053;28;45303;-66
2022/07/17 08:13:26;;;;;;;;;4.00;2.00;;;;;24.07;36.96;101615.09;5015125;28;45265;-67
2022/07/17 08:15:52;;;;;;;;;5.25;4.75;;;;;24.19;37.62;101613.22;5047098;28;45308;-68
2022/07/17 08:18:17;;;;;;;;;5.00;5.00;;;;;24.33;37.35;101609.41;5014541;28;45498;-69
2022/07/17 08:20:43;;;;;;;;;4.50;4.50;;;;;24.45;36.80;101612.91;5014694;28;45189;-70
2022/07/17 08:23:08;;;;;;;;;3.00;3.00;;;;;24.48;36.33;101615.34;5015091;28;45836;-67
2022/07/17 08:25:34;;;;;;;;;4.75;4.75;;;;;24.54;36.34;101609.47;5015208;28;45234;-68
2022/07/17 08:28:00;;;;;;;;;2.50;1.00;;;;;24.65;36.07;101603.16;5013136;28;48194;-66
2022/07/17 08:30:25;;;;;;;;;5.50;3.00;;;;;24.73;36.09;101607.91;5014664;28;45441;-67
2022/07/17 08:32:51;;;;;;;;;7.00;7.00;;;;;24.82;35.71;101612.53;5014600;28;45312;-64
2022/07/17 08:35:16;;;;;;;;;3.25;3.25;;;;;24.90;34.78;101610.03;5014724;28;45342;-66
2022/07/17 08:37:47;;;;;;;;;3.75;3.25;;;;;24.90;35.07;101615.44;5014326;28;45415;-67
2022/07/17 08:40:23;;;;;;;;;3.50;2.25;;;;;24.91;34.95;101613.56;5014127;28;45312;-67
2022/07/17 08:42:50;;;;;;;;;2.75;2.50;;;;;24.94;33.92;101621.41;5014446;28;45279;-64
2022/07/17 08:45:16;;;;;;;;;5.50;5.50;;;;;24.93;34.13;101614.31;5014540;28;45446;-66
2022/07/17 08:47:41;;;;;;;;;4.00;4.00;;;;;25.01;34.58;101617.22;5014152;28;45902;-66
2022/07/17 08:50:10;;;;;;;;;3.50;3.50;;;;;25.04;34.84;101608.00;5014399;28;45330;-66
2022/07/17 08:52:37;;;;;;;;;3.00;3.00;;;;;25.13;34.25;101601.81;5014968;28;45294;-67
2022/07/17 08:55:03;;;;;;;;;5.25;3.50;;;;;25.22;34.70;101603.72;5014820;28;45302;-65
2022/07/17 08:57:28;;;;;;;;;3.50;3.50;;;;;25.35;34.16;101606.22;5014225;28;46112;-65
2022/07/17 08:59:54;;;;;;;;;3.50;3.50;;;;;25.46;34.14;101605.31;5014098;28;46374;-64
2022/07/17 09:02:19;;;;;;;;;7.50;4.50;;;;;25.46;33.08;101604.44;5014470;28;45402;-67
2022/07/17 09:04:53;;;;;;;;;3.00;3.00;;;;;25.48;33.60;101607.84;5014697;28;45662;-64
2022/07/17 09:07:19;;;;;;;;;9.75;9.75;;;;;25.54;33.66;101604.63;5013915;28;46105;-67
2022/07/17 09:09:51;;;;;;;;;4.25;4.25;;;;;25.67;32.91;101616.00;5014296;28;45198;-69
2022/07/17 09:12:16;;;;;;;;;3.00;3.00;;;;;25.74;32.58;101610.06;5014666;28;45373;-68
2022/07/17 09:14:41;;;;;;;;;4.50;4.50;;;;;25.77;32.46;101599.91;5014174;28;45602;-65
2022/07/17 09:17:09;;;;;;;;;3.50;3.50;;;;;25.91;33.05;101609.41;5014187;28;45846;-66
2022/07/17 09:19:47;;;;;;;;;9.75;5.00;;;;;25.95;31.89;101615.41;5014342;28;45473;-67
2022/07/17 09:22:18;;;;;;;;;5.50;5.50;;;;;26.01;32.18;101612.16;5014349;28;45378;-68
2022/07/17 09:24:47;;;;;;;;;3.00;3.00;;;;;26.01;31.67;101609.47;5014578;28;45274;-67
2022/07/17 09:27:17;;;;;;;;;4.50;4.50;;;;;26.05;31.86;101607.34;5014035;28;46381;-66
2022/07/17 09:30:11;;;;;;;;;2.25;2.25;;;;;26.14;32.35;101611.91;5014341;28;45333;-65
2022/07/17 09:32:38;;;;;;;;;4.00;4.00;;;;;26.19;31.90;101604.28;5014704;28;45181;-68
2022/07/17 09:35:07;;;;;;;;;4.00;4.00;;;;;26.26;31.41;101615.34;5014331;28;45221;-68
2022/07/17 09:37:33;;;;;;;;;4.00;2.25;;;;;26.40;31.65;101620.31;5013735;28;46645;-69
2022/07/17 09:40:00;;;;;;;;;24.00;22.75;;;;;26.55;31.49;101609.16;5012037;28;45466;-68
2022/07/17 09:42:27;;;;;;;;;3.75;3.75;;;;;26.62;30.78;101618.38;5013897;28;45365;-68
2022/07/17 09:45:03;;;;;;;;;6.50;5.25;;;;;26.73;30.63;101616.50;5013680;28;45462;-68
2022/07/17 09:47:30;;;;;;;;;3.50;3.50;;;;;26.83;30.80;101612.00;5012109;28;47454;-66
2022/07/17 09:49:56;;;;;;;;;3.25;3.25;;;;;26.95;30.63;101605.44;5013589;28;45702;-68
2022/07/17 09:52:32;;;;;;;;;7.00;7.00;;;;;27.10;30.55;101610.38;5013691;28;45355;-67
2022/07/17 09:54:59;;;;;;;;;7.00;5.75;;;;;27.23;30.28;101610.91;5011872;28;45349;-68
2022/07/17 09:57:27;;;;;;;;;4.00;3.00;;;;;27.30;29.29;101611.19;5011844;28;47165;-69
2022/07/17 09:59:55;;;;;;;;;2.00;2.00;;;;;27.30;27.63;101618.41;5012224;28;45730;-68
2022/07/17 10:02:21;;;;;;;;;3.00;3.00;;;;;27.23;28.37;101608.22;5015488;28;45356;-68
2022/07/17 10:04:48;;;;;;;;;4.00;4.00;;;;;27.26;28.52;101616.00;5017543;28;45519;-67
2022/07/17 10:07:13;;;;;;;;;3.50;2.75;;;;;27.22;27.08;101614.59;5017380;28;45469;-68
2022/07/17 10:09:39;;;;;;;;;4.00;4.00;;;;;27.24;26.74;101607.22;5017313;28;45277;-69
2022/07/17 10:12:09;;;;;;;;;2.00;2.00;;;;;27.30;26.58;101613.03;5017295;28;45352;-69
2022/07/17 10:14:35;;;;;;;;;3.00;3.00;;;;;27.37;27.13;101611.44;5015679;28;45561;-69
2022/07/17 10:17:11;;;;;;;;;2.00;2.00;;;;;27.51;26.97;101612.84;5016566;28;46533;-68
2022/07/17 10:19:50;;;;;;;;;3.50;3.50;;;;;27.60;26.31;101611.13;5016778;28;45292;-70
2022/07/17 10:22:16;;;;;;;;;2.25;2.25;;;;;27.62;25.34;101611.81;5015541;28;45348;-68
2022/07/17 10:24:49;;;;;;;;;2.75;2.75;;;;;27.66;26.01;101610.53;5016894;28;45294;-68
2022/07/17 10:27:22;;;;;;;;;4.25;3.25;;;;;27.74;26.63;101616.03;5016439;28;45391;-67
2022/07/17 10:30:05;;;;;;;;;3.50;3.50;;;;;27.90;26.20;101622.63;5016337;28;45494;-64
2022/07/17 10:32:31;;;;;;;;;2.00;2.00;;;;;27.95;25.78;101620.31;5016526;28;45439;-69
2022/07/17 10:35:04;;;;;;;;;12.00;12.00;;;;;28.05;25.71;101620.25;5015222;28;45319;-67
2022/07/17 10:37:39;;;;;;;;;1.50;1.00;;;;;28.11;24.78;101619.66;5016345;28;45316;-67
2022/07/17 10:40:07;;;;;;;;;5.00;5.00;;;;;28.17;25.55;101619.09;5016278;28;45682;-68
2022/07/17 10:42:58;;;;;;;;;3.75;3.75;;;;;28.33;25.42;101623.78;5016229;28;45287;-68
2022/07/17 10:45:35;;;;;;;;;3.00;3.00;;;;;28.39;25.18;101630.47;5016458;28;45462;-68
2022/07/17 10:48:12;;;;;;;;;3.00;1.25;;;;;28.48;25.95;101628.66;5016314;28;46328;-67
2022/07/17 10:50:50;;;;;;;;;3.00;3.00;;;;;28.50;25.70;101623.94;5016118;28;45383;-64
2022/07/17 10:53:24;;;;;;;;;2.50;2.50;;;;;28.58;25.86;101615.91;5016485;28;45271;-63
2022/07/17 10:56:05;;;;;;;;;3.00;3.00;;;;;28.72;26.00;101618.06;5016552;28;45383;-68
2022/07/17 10:58:34;;;;;;;;;3.00;3.00;;;;;28.77;25.25;101619.47;5016154;28;45646;-70
2022/07/17 11:01:25;;;;;;;;;4.00;4.00;;;;;28.75;25.90;101622.31;5015921;28;45312;-69
2022/07/17 11:03:54;;;;;;;;;2.25;2.25;;;;;28.84;25.75;101615.16;5016617;28;45496;-67
2022/07/17 11:06:22;;;;;;;;;4.75;3.50;;;;;28.88;25.64;101619.25;5016489;28;45410;-68
2022/07/17 11:09:00;;;;;;;;;9.25;9.00;;;;;28.90;25.74;101608.22;5015990;28;45415;-67
2022/07/17 11:11:37;;;;;;;;;4.25;4.25;;;;;28.98;25.19;101611.88;5016141;28;45312;-67
2022/07/17 11:14:23;;;;;;;;;3.50;3.50;;;;;29.05;24.35;101603.94;5014591;28;45448;-66
2022/07/17 11:16:53;;;;;;;;;3.25;3.25;;;;;29.12;24.69;101604.16;5015869;28;45383;-67
2022/07/17 11:19:38;;;;;;;;;4.75;4.75;;;;;29.15;25.31;101604.69;5031102;28;48385;-69
2022/07/17 11:22:06;;;;;;;;;3.00;3.00;;;;;29.23;24.84;101611.19;5016153;28;45341;-68